Malone, Iowa
Current Conditions -  °F | °C
As of 8:35 AM on Friday 31 Oct 2014 (Local Time) from KCWI Reporting Station
Clear Clear  
Wind Chill: 23°   Ceiling: Unl
Heat Index: 34°   Visibility: 10mi
Dew Point: 21°   Wind: 18mph
Humidity: 60%   Direction: 350°N
Pressure: 30.31"   Gusts: 24mph
Location:  41.8361°N, 90.4777°W
Report Text: KCWI 311335Z 35016G21KT 10SM CLR 01/M06 A3031 RMK AO1
Loading
Personal Weather Stations






























Interactive Weather Map
Tropical Storm Tracking
New forecast layout! Learn more

10-Day Weather Forecast

Advertisements
Track Severe Weather on mobile